createdAt,value
2022-08-16T00:02:31.211Z,6.87
2022-08-16T00:05:00.120Z,6.90
2022-08-16T00:07:29.199Z,6.93
2022-08-16T00:09:58.715Z,7.13
2022-08-16T00:12:28.342Z,7.30
2022-08-16T00:14:56.591Z,8.20
2022-08-16T00:17:25.002Z,7.53
2022-08-16T00:19:53.424Z,7.50
2022-08-16T00:22:24.660Z,7.50
2022-08-16T00:24:53.570Z,7.20
2022-08-16T00:27:22.474Z,7.50
2022-08-16T00:30:00.862Z,7.53
2022-08-16T00:32:38.409Z,8.17
2022-08-16T00:35:15.020Z,7.70
2022-08-16T00:37:57.311Z,7.83
2022-08-16T00:40:43.584Z,7.73
2022-08-16T00:43:25.975Z,8.33
2022-08-16T00:46:22.356Z,7.90
2022-08-16T00:49:01.086Z,7.20
2022-08-16T00:51:29.844Z,7.53
2022-08-16T00:53:58.617Z,7.87
2022-08-16T00:56:56.843Z,8.30
2022-08-16T00:59:20.990Z,7.77
2022-08-16T01:01:52.167Z,7.93
2022-08-16T01:04:29.149Z,8.53
2022-08-16T01:07:01.902Z,8.00
2022-08-16T01:09:34.157Z,8.47
2022-08-16T01:12:03.554Z,9.10
2022-08-16T01:14:37.848Z,9.10
2022-08-16T01:17:08.396Z,8.63
2022-08-16T01:19:49.911Z,8.17
2022-08-16T01:22:49.715Z,8.57
2022-08-16T01:25:33.733Z,8.03
2022-08-16T01:28:04.679Z,8.50
2022-08-16T01:30:39.884Z,8.50
2022-08-16T01:33:16.948Z,8.10
2022-08-16T01:35:56.297Z,9.50
2022-08-16T01:38:25.929Z,9.27
2022-08-16T01:41:01.847Z,7.97
2022-08-16T01:43:31.115Z,8.90
2022-08-16T01:46:29.875Z,8.47
2022-08-16T01:48:53.407Z,8.77
2022-08-16T01:51:23.931Z,9.00
2022-08-16T01:53:54.647Z,9.17
2022-08-16T01:56:25.216Z,8.93
2022-08-16T01:58:55.109Z,8.57
2022-08-16T02:01:23.034Z,9.13
2022-08-16T02:03:53.172Z,8.70
2022-08-16T02:06:34.824Z,9.57
2022-08-16T02:09:12.031Z,8.87
2022-08-16T02:11:48.778Z,8.67
2022-08-16T02:14:22.437Z,9.60
2022-08-16T02:16:53.773Z,8.83
2022-08-16T02:19:21.525Z,10.03
2022-08-16T02:22:08.360Z,9.13
2022-08-16T02:24:42.571Z,8.93
2022-08-16T02:27:13.653Z,8.97
2022-08-16T02:29:42.772Z,9.83
2022-08-16T02:32:51.207Z,10.33
2022-08-16T02:34:59.616Z,9.43
2022-08-16T02:37:39.751Z,9.60
2022-08-16T02:40:19.387Z,10.50
2022-08-16T02:42:50.025Z,10.30
2022-08-16T02:45:24.905Z,10.10
2022-08-16T02:48:01.087Z,10.60
2022-08-16T02:50:54.452Z,10.40
2022-08-16T02:53:29.875Z,10.03
2022-08-16T02:55:56.839Z,10.70
2022-08-16T02:58:25.170Z,9.53
2022-08-16T03:00:56.155Z,9.93
2022-08-16T03:03:25.084Z,11.00
2022-08-16T03:05:53.131Z,11.30
2022-08-16T03:08:50.762Z,11.20
2022-08-16T03:11:16.259Z,10.77
2022-08-16T03:13:51.180Z,10.50
2022-08-16T03:16:37.792Z,11.23
2022-08-16T03:19:06.411Z,11.13
2022-08-16T03:21:37.747Z,11.80
2022-08-16T03:24:06.484Z,11.73
2022-08-16T03:26:53.443Z,12.13
2022-08-16T03:29:27.307Z,11.80
2022-08-16T03:31:59.209Z,11.90
2022-08-16T03:34:26.822Z,11.47
2022-08-16T03:36:54.018Z,12.77
2022-08-16T03:39:20.964Z,11.97
2022-08-16T03:41:50.215Z,12.00
2022-08-16T03:44:43.838Z,11.20
2022-08-16T03:47:10.039Z,12.00
2022-08-16T03:49:37.649Z,12.03
2022-08-16T03:52:06.207Z,12.07
2022-08-16T03:54:35.790Z,11.97
2022-08-16T03:57:04.936Z,12.60
2022-08-16T03:59:32.495Z,11.77
2022-08-16T04:02:01.725Z,12.63
2022-08-16T04:04:33.292Z,11.63
2022-08-16T04:07:02.851Z,12.43
2022-08-16T04:09:35.463Z,11.67
2022-08-16T04:12:11.184Z,12.43
2022-08-16T04:14:51.947Z,14.17
2022-08-16T04:17:18.812Z,12.23
2022-08-16T04:19:46.728Z,13.00
2022-08-16T04:22:17.397Z,13.00
2022-08-16T04:24:54.233Z,12.83
2022-08-16T04:27:24.353Z,13.23
2022-08-16T04:29:52.198Z,12.97
2022-08-16T04:32:20.016Z,12.67
2022-08-16T04:34:47.197Z,13.17
2022-08-16T04:37:14.308Z,13.37
2022-08-16T04:39:46.798Z,12.87
2022-08-16T04:42:17.778Z,12.73
2022-08-16T04:44:53.815Z,13.03
2022-08-16T04:47:31.715Z,13.33
2022-08-16T04:50:06.871Z,13.97
2022-08-16T04:52:36.060Z,13.03
2022-08-16T04:55:11.830Z,12.97
2022-08-16T04:57:41.391Z,13.60
2022-08-16T05:00:30.376Z,13.27
2022-08-16T05:03:07.496Z,14.00
2022-08-16T05:05:45.108Z,14.27
2022-08-16T05:08:29.937Z,14.07
2022-08-16T05:11:06.026Z,13.93
2022-08-16T05:13:40.462Z,14.83
2022-08-16T05:16:12.021Z,14.50
2022-08-16T05:18:47.144Z,13.67
2022-08-16T05:21:13.945Z,14.83
2022-08-16T05:23:40.836Z,15.37
2022-08-16T05:26:19.545Z,14.33
2022-08-16T05:28:48.074Z,16.13
2022-08-16T05:31:29.569Z,15.43
2022-08-16T05:34:03.651Z,15.37
2022-08-16T05:36:34.057Z,16.20
2022-08-16T05:39:04.751Z,15.93
2022-08-16T05:41:31.538Z,16.23
2022-08-16T05:44:00.362Z,16.10
2022-08-16T05:46:32.788Z,16.27
2022-08-16T05:49:09.018Z,16.77
2022-08-16T05:51:39.105Z,16.07
2022-08-16T05:54:08.026Z,16.23
2022-08-16T05:56:37.753Z,16.57
2022-08-16T05:59:06.402Z,16.10
2022-08-16T06:01:38.221Z,16.17
2022-08-16T06:04:13.531Z,17.23
2022-08-16T06:06:57.781Z,16.27
2022-08-16T06:09:43.324Z,16.53
2022-08-16T06:12:27.430Z,16.43
2022-08-16T06:14:59.187Z,16.60
2022-08-16T06:17:41.651Z,17.43
2022-08-16T06:20:24.173Z,16.93
2022-08-16T06:22:59.089Z,16.60
2022-08-16T06:25:35.845Z,16.67
2022-08-16T06:28:08.609Z,16.90
2022-08-16T06:30:44.063Z,15.63
2022-08-16T06:33:22.196Z,16.40
2022-08-16T06:35:50.767Z,17.43
2022-08-16T06:38:33.429Z,16.63
2022-08-16T06:41:03.840Z,16.27
2022-08-16T06:43:32.197Z,17.73
2022-08-16T06:45:59.587Z,17.13
2022-08-16T06:48:32.760Z,17.57
2022-08-16T06:51:01.934Z,17.63
2022-08-16T06:53:29.702Z,17.97
2022-08-16T06:55:58.648Z,18.37
2022-08-16T06:58:31.860Z,18.00
2022-08-16T07:01:02.592Z,18.97
2022-08-16T07:03:32.612Z,18.87
2022-08-16T07:05:59.856Z,17.90
2022-08-16T07:08:28.223Z,17.70
2022-08-16T07:10:56.490Z,17.93
2022-08-16T07:13:54.723Z,18.13
2022-08-16T07:16:17.016Z,19.53
2022-08-16T07:18:59.156Z,17.93
2022-08-16T07:21:45.999Z,19.57
2022-08-16T07:24:30.745Z,18.50
2022-08-16T07:26:59.071Z,19.07
2022-08-16T07:29:31.860Z,18.80
2022-08-16T07:32:00.555Z,17.83
2022-08-16T07:34:35.825Z,19.33
2022-08-16T07:37:09.738Z,18.57
2022-08-16T07:39:37.570Z,18.50
2022-08-16T07:42:28.189Z,18.43
2022-08-16T07:44:58.464Z,17.67
2022-08-16T07:47:31.445Z,18.00
2022-08-16T07:50:07.475Z,19.77
2022-08-16T07:52:34.966Z,18.27
2022-08-16T07:55:06.749Z,17.93
2022-08-16T07:57:37.956Z,16.90
2022-08-16T08:00:18.402Z,16.37
2022-08-16T08:02:47.718Z,18.27
2022-08-16T08:05:25.429Z,18.17
2022-08-16T08:08:11.529Z,17.03
2022-08-16T08:10:39.030Z,16.57
2022-08-16T08:13:06.038Z,17.83
2022-08-16T08:15:37.041Z,17.37
2022-08-16T08:18:29.991Z,16.93
2022-08-16T08:20:58.893Z,16.50
2022-08-16T08:23:25.966Z,16.30
2022-08-16T08:25:54.873Z,15.23
2022-08-16T08:28:22.583Z,16.53
2022-08-16T08:31:01.533Z,15.73
2022-08-16T08:33:31.866Z,15.03
2022-08-16T08:36:05.179Z,14.23
2022-08-16T08:38:44.984Z,15.17
2022-08-16T08:41:15.459Z,14.40
2022-08-16T08:43:47.113Z,14.53
2022-08-16T08:46:21.492Z,13.87
2022-08-16T08:48:59.486Z,15.50
2022-08-16T08:51:31.865Z,15.13
2022-08-16T08:54:06.871Z,14.13
2022-08-16T08:56:37.839Z,13.67
2022-08-16T08:59:19.857Z,15.57
2022-08-16T09:01:57.665Z,13.93
2022-08-16T09:04:26.762Z,14.00
2022-08-16T09:06:54.708Z,14.27
2022-08-16T09:09:22.763Z,13.90
2022-08-16T09:12:03.967Z,13.93
2022-08-16T09:14:34.524Z,14.17
2022-08-16T09:17:11.904Z,13.27
2022-08-16T09:19:52.633Z,11.77
2022-08-16T09:22:28.144Z,12.50
2022-08-16T09:25:10.032Z,12.95
2022-08-16T09:27:56.799Z,12.80
2022-08-16T09:30:34.082Z,12.68
2022-08-16T09:33:06.511Z,12.05
2022-08-16T09:35:36.630Z,12.65
2022-08-16T09:38:05.528Z,11.93
2022-08-16T09:40:43.276Z,12.15
2022-08-16T09:43:57.921Z,11.38
2022-08-16T09:46:33.497Z,10.50
2022-08-16T09:48:56.430Z,10.05
2022-08-16T09:51:30.606Z,9.63
2022-08-16T09:54:03.701Z,9.77
2022-08-16T09:56:35.373Z,10.63
2022-08-16T09:59:07.905Z,8.90
2022-08-16T10:01:37.040Z,9.88
2022-08-16T10:04:28.915Z,9.43
2022-08-16T10:09:25.650Z,8.85
2022-08-16T10:12:31.190Z,9.38
2022-08-16T10:14:57.935Z,10.85
2022-08-16T10:17:25.244Z,9.35
2022-08-16T10:19:55.356Z,10.25
2022-08-16T10:22:23.352Z,8.85
2022-08-16T10:24:56.074Z,7.47
2022-08-16T10:27:29.774Z,8.40
2022-08-16T10:30:26.283Z,7.70
2022-08-16T10:32:57.186Z,7.73
2022-08-16T10:35:32.654Z,7.97
2022-08-16T10:38:00.164Z,8.97
2022-08-16T10:40:29.432Z,8.53
2022-08-16T10:43:00.546Z,7.80
2022-08-16T10:45:36.658Z,6.73
2022-08-16T10:48:27.514Z,7.18
2022-08-16T10:50:58.731Z,8.23
2022-08-16T10:53:33.182Z,7.10
2022-08-16T10:56:55.951Z,8.60
2022-08-16T10:59:32.377Z,7.13
2022-08-16T11:02:21.831Z,7.70
2022-08-16T11:12:54.246Z,6.80
2022-08-16T11:15:21.829Z,6.83
2022-08-16T11:18:48.753Z,8.63
2022-08-16T11:20:48.678Z,7.60
2022-08-16T11:23:16.801Z,7.67
2022-08-16T11:31:18.130Z,8.07
2022-08-16T11:33:52.792Z,6.43
2022-08-16T11:36:27.835Z,6.18
2022-08-16T11:39:00.172Z,6.15
2022-08-16T11:41:29.431Z,6.13
2022-08-16T11:43:59.582Z,7.80
2022-08-16T11:46:43.639Z,6.68
2022-08-16T11:49:14.332Z,6.90
2022-08-16T11:51:46.007Z,6.05
2022-08-16T11:54:20.667Z,7.68
2022-08-16T11:56:57.311Z,7.40
2022-08-16T11:59:28.633Z,7.72
2022-08-16T12:01:59.511Z,7.10
2022-08-16T12:04:27.981Z,5.95
2022-08-16T12:06:54.965Z,5.85
2022-08-16T12:09:24.062Z,5.97
2022-08-16T12:11:52.776Z,5.88
2022-08-16T12:14:22.641Z,6.43
2022-08-16T12:16:55.627Z,5.82
2022-08-16T12:19:35.507Z,5.83
2022-08-16T12:22:05.872Z,5.13
2022-08-16T12:24:52.181Z,5.03
2022-08-16T12:27:23.196Z,4.97
2022-08-16T12:29:53.987Z,4.55
2022-08-16T12:32:38.405Z,3.85
2022-08-16T12:35:12.180Z,5.22
2022-08-16T12:37:39.878Z,5.30
2022-08-16T12:40:24.128Z,5.30
2022-08-16T12:42:58.518Z,4.50
2022-08-16T12:45:35.627Z,4.97
2022-08-16T12:48:39.406Z,4.40
2022-08-16T12:51:19.922Z,3.65
2022-08-16T12:53:51.806Z,3.17
2022-08-16T12:56:20.774Z,4.57
2022-08-16T12:58:51.871Z,5.72
2022-08-16T13:01:26.863Z,5.13
2022-08-16T13:04:11.969Z,4.28
2022-08-16T13:06:43.176Z,5.35
2022-08-16T13:09:20.745Z,5.32
2022-08-16T13:12:03.481Z,4.65
2022-08-16T13:14:37.959Z,4.78
2022-08-16T13:17:08.990Z,4.53
2022-08-16T13:20:06.738Z,4.32
2022-08-16T13:22:25.184Z,4.72
2022-08-16T13:24:54.416Z,5.30
2022-08-16T13:28:02.950Z,4.57
2022-08-16T13:30:22.138Z,5.50
2022-08-16T13:32:57.062Z,5.65
2022-08-16T13:35:25.572Z,5.95
2022-08-16T13:37:52.424Z,5.90
2022-08-16T13:40:21.249Z,5.47
2022-08-16T13:42:49.675Z,5.45
2022-08-16T13:45:17.432Z,5.32
2022-08-16T13:47:46.244Z,4.95
2022-08-16T13:50:14.340Z,4.47
2022-08-16T13:52:42.497Z,4.65
2022-08-16T13:55:17.603Z,4.45
2022-08-16T13:58:35.167Z,4.40
2022-08-16T14:00:32.016Z,5.50
2022-08-16T14:02:59.160Z,4.60
2022-08-16T14:05:27.336Z,5.80
2022-08-16T14:07:54.179Z,5.53
2022-08-16T14:10:21.427Z,4.78
2022-08-16T14:12:48.277Z,4.55
2022-08-16T14:15:16.100Z,4.68
2022-08-16T14:18:15.673Z,4.72
2022-08-16T14:20:30.225Z,4.90
2022-08-16T14:22:57.099Z,4.50
2022-08-16T14:25:25.401Z,5.28
2022-08-16T14:27:54.420Z,4.38
2022-08-16T14:30:22.651Z,3.78
2022-08-16T14:32:51.370Z,4.20
2022-08-16T14:35:48.622Z,4.93
2022-08-16T14:38:18.896Z,4.57
2022-08-16T14:40:52.788Z,4.32
2022-08-16T14:43:23.777Z,3.78
2022-08-16T14:45:50.866Z,3.85
2022-08-16T14:48:25.886Z,4.05
2022-08-16T14:50:53.839Z,3.72
2022-08-16T14:53:20.856Z,3.63
2022-08-16T14:55:48.498Z,3.58
2022-08-16T14:58:19.486Z,3.53
2022-08-16T15:00:50.345Z,3.05
2022-08-16T15:03:19.425Z,3.40
2022-08-16T15:05:49.337Z,3.42
2022-08-16T15:08:20.998Z,3.60
2022-08-16T15:11:03.301Z,3.10
2022-08-16T15:13:30.157Z,2.90
2022-08-16T15:16:02.318Z,2.78
2022-08-16T15:18:31.871Z,3.22
2022-08-16T15:21:01.801Z,2.97
2022-08-16T15:23:29.257Z,2.78
2022-08-16T15:26:02.583Z,2.63
2022-08-16T15:28:37.947Z,2.85
2022-08-16T15:31:08.268Z,2.85
2022-08-16T15:33:42.714Z,2.40
2022-08-16T15:36:17.471Z,2.63
2022-08-16T15:38:56.944Z,2.30
2022-08-16T15:41:38.777Z,2.42
2022-08-16T15:44:10.580Z,2.40
2022-08-16T15:46:54.768Z,2.30
2022-08-16T15:49:37.809Z,2.60
2022-08-16T15:52:20.429Z,2.20
2022-08-16T15:54:52.527Z,2.60
2022-08-16T15:57:24.736Z,2.35
2022-08-16T15:59:52.734Z,2.70
2022-08-16T16:02:31.309Z,2.78
2022-08-16T16:05:09.785Z,2.63
2022-08-16T16:07:40.689Z,3.10
2022-08-16T16:10:12.870Z,2.67
2022-08-16T16:12:51.403Z,2.35
2022-08-16T16:15:24.545Z,2.20
2022-08-16T16:17:53.070Z,2.95
2022-08-16T16:20:24.495Z,2.50
2022-08-16T16:23:00.190Z,2.35
2022-08-16T16:25:29.857Z,2.50
2022-08-16T16:27:59.934Z,2.30
2022-08-16T16:30:38.024Z,2.35
2022-08-16T16:33:20.847Z,2.90
2022-08-16T16:35:54.932Z,2.80
2022-08-16T16:38:24.594Z,3.15
2022-08-16T16:40:53.994Z,2.80
2022-08-16T16:43:25.888Z,2.60
2022-08-16T16:45:58.989Z,2.83
2022-08-16T16:48:34.353Z,3.03
2022-08-16T16:51:09.923Z,3.90
2022-08-16T16:53:41.809Z,3.38
2022-08-16T16:56:19.814Z,3.00
2022-08-16T16:58:56.664Z,3.20
2022-08-16T17:01:56.712Z,3.08
2022-08-16T17:04:27.394Z,3.15
2022-08-16T17:06:59.489Z,3.30
2022-08-16T17:09:26.270Z,2.88
2022-08-16T17:11:55.138Z,3.10
2022-08-16T17:14:33.312Z,3.10
2022-08-16T17:17:08.971Z,3.17
2022-08-16T17:19:40.852Z,3.10
2022-08-16T17:22:14.015Z,3.92
2022-08-16T17:24:45.355Z,3.15
2022-08-16T17:27:19.435Z,3.10
2022-08-16T17:30:14.654Z,3.60
2022-08-16T17:32:46.860Z,3.80
2022-08-16T17:35:19.143Z,3.17
2022-08-16T17:37:54.286Z,3.78
2022-08-16T17:40:40.268Z,3.47
2022-08-16T17:43:13.644Z,3.60
2022-08-16T17:45:41.831Z,3.78
2022-08-16T17:48:09.300Z,3.22
2022-08-16T17:50:37.530Z,3.17
2022-08-16T17:53:05.157Z,3.75
2022-08-16T17:55:35.820Z,3.70
2022-08-16T17:58:09.887Z,3.55
2022-08-16T18:00:49.567Z,3.80
2022-08-16T18:03:40.677Z,3.67
2022-08-16T18:06:13.678Z,3.75
2022-08-16T18:08:41.521Z,4.00
2022-08-16T18:11:12.078Z,3.72
2022-08-16T18:13:43.087Z,4.03
2022-08-16T18:16:11.560Z,3.88
2022-08-16T18:18:38.394Z,4.25
2022-08-16T18:21:23.807Z,3.90
2022-08-16T18:23:50.633Z,3.80
2022-08-16T18:26:17.577Z,4.00
2022-08-16T18:28:44.329Z,4.30
2022-08-16T18:31:11.161Z,4.43
2022-08-16T18:33:43.524Z,4.50
2022-08-16T18:36:19.915Z,4.60
2022-08-16T18:38:49.282Z,4.47
2022-08-16T18:41:16.430Z,3.93
2022-08-16T18:44:00.883Z,4.47
2022-08-16T18:46:30.047Z,5.27
2022-08-16T18:48:56.997Z,4.80
2022-08-16T18:51:25.463Z,4.83
2022-08-16T18:53:53.563Z,4.63
2022-08-16T18:56:20.593Z,5.35
2022-08-16T18:58:47.403Z,4.88
2022-08-16T19:01:14.503Z,5.22
2022-08-16T19:03:41.798Z,5.32
2022-08-16T19:06:13.888Z,5.30
2022-08-16T19:08:45.673Z,5.10
2022-08-16T19:11:19.978Z,5.47
2022-08-16T19:13:46.912Z,5.35
2022-08-16T19:16:15.234Z,6.38
2022-08-16T19:18:42.373Z,5.47
2022-08-16T19:21:14.601Z,5.90
2022-08-16T19:23:43.914Z,5.90
2022-08-16T19:26:24.734Z,5.63
2022-08-16T19:28:58.501Z,5.73
2022-08-16T19:31:35.297Z,5.40
2022-08-16T19:34:03.928Z,5.90
2022-08-16T19:36:36.086Z,5.43
2022-08-16T19:39:09.002Z,7.23
2022-08-16T19:41:38.703Z,8.07
2022-08-16T19:44:06.620Z,7.60
2022-08-16T19:46:34.632Z,8.23
2022-08-16T19:49:01.768Z,10.00
2022-08-16T19:51:28.918Z,10.50
2022-08-16T19:53:55.804Z,11.20
2022-08-16T19:56:25.662Z,11.33
2022-08-16T19:59:17.604Z,10.97
2022-08-16T20:01:42.529Z,11.63
2022-08-16T20:04:13.272Z,12.33
2022-08-16T20:06:41.511Z,14.47
2022-08-16T20:09:08.447Z,13.33
2022-08-16T20:11:37.455Z,15.53
2022-08-16T20:14:05.638Z,14.63
2022-08-16T20:16:32.754Z,14.97
2022-08-16T20:18:59.599Z,16.33
2022-08-16T20:21:26.345Z,15.90
2022-08-16T20:24:01.310Z,16.70
2022-08-16T20:26:37.094Z,17.03
2022-08-16T20:29:03.961Z,17.97
2022-08-16T20:31:30.926Z,18.50
2022-08-16T20:33:57.780Z,19.57
2022-08-16T20:36:24.894Z,19.50
2022-08-16T20:38:52.723Z,19.95
2022-08-16T20:41:19.595Z,21.17
2022-08-16T20:43:47.625Z,20.25
2022-08-16T20:46:15.441Z,20.63
2022-08-16T20:48:42.808Z,19.77
2022-08-16T20:51:12.799Z,22.23
2022-08-16T20:53:41.154Z,21.57
2022-08-16T20:56:11.263Z,21.87
2022-08-16T20:58:38.491Z,22.80
2022-08-16T21:01:08.424Z,20.87
2022-08-16T21:03:35.988Z,21.33
2022-08-16T21:06:03.146Z,21.10
2022-08-16T21:08:52.101Z,19.97
2022-08-16T21:11:18.028Z,20.57
2022-08-16T21:13:44.869Z,21.50
2022-08-16T21:16:11.745Z,21.77
2022-08-16T21:18:38.840Z,22.00
2022-08-16T21:21:05.731Z,21.17
2022-08-16T21:23:33.153Z,22.73
2022-08-16T21:26:00.078Z,22.00
2022-08-16T21:28:39.147Z,22.50
2022-08-16T21:31:09.755Z,23.00
2022-08-16T21:33:36.948Z,24.30
2022-08-16T21:36:04.304Z,23.07
2022-08-16T21:38:31.402Z,23.40
2022-08-16T21:40:59.854Z,23.43
2022-08-16T21:43:28.817Z,22.60
2022-08-16T21:45:56.071Z,25.13
2022-08-16T21:48:34.958Z,24.50
2022-08-16T21:51:08.446Z,24.67
2022-08-16T21:53:35.833Z,24.97
2022-08-16T21:56:04.192Z,25.00
2022-08-16T21:58:31.660Z,25.67
2022-08-16T22:00:59.156Z,26.43
2022-08-16T22:03:26.234Z,26.40
2022-08-16T22:06:12.281Z,26.87
2022-08-16T22:08:50.332Z,26.60
2022-08-16T22:11:19.672Z,26.37
2022-08-16T22:13:57.214Z,26.37
2022-08-16T22:16:31.541Z,27.13
2022-08-16T22:18:59.097Z,27.13
2022-08-16T22:21:26.487Z,28.57
2022-08-16T22:23:56.650Z,26.67
2022-08-16T22:26:38.451Z,28.77
2022-08-16T22:29:10.276Z,27.07
2022-08-16T22:31:39.471Z,28.27
2022-08-16T22:34:07.947Z,27.97
2022-08-16T22:36:35.319Z,29.10
2022-08-16T22:39:05.993Z,28.23
2022-08-16T22:41:34.292Z,28.60
2022-08-16T22:44:02.640Z,28.10
2022-08-16T22:46:30.468Z,30.20
2022-08-16T22:48:57.855Z,29.87
2022-08-16T22:51:27.483Z,30.50
2022-08-16T22:53:55.561Z,29.83
2022-08-16T22:56:23.827Z,30.37
2022-08-16T22:58:51.080Z,31.00
2022-08-16T23:01:20.875Z,31.17
2022-08-16T23:03:48.237Z,30.77
2022-08-16T23:06:15.717Z,31.00
2022-08-16T23:08:43.195Z,29.80
2022-08-16T23:11:13.187Z,30.30
2022-08-16T23:13:52.444Z,30.70
2022-08-16T23:16:32.490Z,31.37
2022-08-16T23:19:00.747Z,30.87
2022-08-16T23:21:27.928Z,31.73
2022-08-16T23:23:54.753Z,30.67
2022-08-16T23:26:46.979Z,29.70
2022-08-16T23:29:15.852Z,30.30
2022-08-16T23:31:49.293Z,30.53
2022-08-16T23:34:16.043Z,31.30
2022-08-16T23:36:42.896Z,30.20
2022-08-16T23:39:09.713Z,29.10
2022-08-16T23:41:36.528Z,30.47
2022-08-16T23:44:55.451Z,28.23
2022-08-16T23:46:50.227Z,30.23
2022-08-16T23:49:56.468Z,29.27
2022-08-16T23:52:08.062Z,29.93
2022-08-16T23:54:35.968Z,29.03
2022-08-16T23:57:04.761Z,32.13
2022-08-16T23:59:32.520Z,29.90
